Archival Weather

Wadi Al Dawasir

Wadi Al Dawasir, Saudi Arabia (OEWD)

Report from: Sunday, October 1, 2023 5:00 PM +03
Current time: Sunday, February 25, 2024 11:33 PM +03

Current weather – Weather history – Daily summaries
Weather forecast

Temperature39.0°C (102.2°F)
Heat index35.7°C (96.3°F)
Dew point-5.0°C (23.0°F)
Winds 10 kts (5.1 m/s, 11.5 mph) East (90°)
Clouds Sky clear
Altimeter29.85 in.Hg (1011 mB)
Relative humidity6 %
Density altitude2,852 ft. (869 m)
Remarks Ceiling and visibility OK
Flight conditions Visual Meteorological Conditions
Raw dataOEWD 011400Z 09010KT CAVOK 39/M05 Q1011
An error has occurred. This application may no longer respond until reloaded. Reload 🗙